createdAt,value
2023-05-25T00:19:52.940Z,46.80
2023-05-25T00:36:35.198Z,46.80
2023-05-25T00:59:43.767Z,47.00
2023-05-25T01:05:38.337Z,46.70
2023-05-25T01:11:34.290Z,46.90
2023-05-25T01:45:20.214Z,46.60
2023-05-25T02:02:13.108Z,47.20
2023-05-25T02:07:44.778Z,47.50
2023-05-25T02:25:17.980Z,46.80
2023-05-25T02:36:23.884Z,47.30
2023-05-25T02:42:05.797Z,47.40
2023-05-25T02:47:38.216Z,47.20
2023-05-25T03:03:53.350Z,47.00
2023-05-25T03:15:20.710Z,47.00
2023-05-25T03:20:53.992Z,47.40
2023-05-25T03:26:25.904Z,47.60
2023-05-25T03:37:42.213Z,47.40
2023-05-25T03:43:11.064Z,47.40
2023-05-25T03:48:45.100Z,47.60
2023-05-25T03:54:34.512Z,47.90
2023-05-25T04:06:33.589Z,47.20
2023-05-25T04:12:19.515Z,47.70
2023-05-25T04:18:16.711Z,48.00
2023-05-25T04:24:30.820Z,48.00
2023-05-25T04:36:11.265Z,48.40
2023-05-25T04:42:16.454Z,48.50
2023-05-25T04:53:39.966Z,48.30
2023-05-25T04:59:30.790Z,48.60
2023-05-25T05:04:53.058Z,49.20
2023-05-25T05:10:25.241Z,48.60
2023-05-25T05:15:36.624Z,49.50
2023-05-25T05:20:40.765Z,48.90
2023-05-25T05:26:58.312Z,49.30
2023-05-25T05:32:24.144Z,50.10
2023-05-25T05:37:48.125Z,50.20
2023-05-25T05:43:36.424Z,49.60
2023-05-25T05:49:10.498Z,50.60
2023-05-25T05:54:43.342Z,50.40
2023-05-25T06:00:35.693Z,50.70
2023-05-25T06:06:11.494Z,51.50
2023-05-25T06:11:42.569Z,51.30
2023-05-25T06:17:20.665Z,51.40
2023-05-25T06:22:53.546Z,51.80
2023-05-25T06:28:28.270Z,51.10
2023-05-25T06:33:42.028Z,51.90
2023-05-25T06:38:55.863Z,51.40
2023-05-25T06:44:29.459Z,51.30
2023-05-25T06:50:14.265Z,51.90
2023-05-25T06:55:48.529Z,52.20
2023-05-25T07:01:04.336Z,51.60
2023-05-25T07:07:02.231Z,51.50
2023-05-25T07:12:13.124Z,51.50
2023-05-25T07:17:53.161Z,51.30
2023-05-25T07:23:25.227Z,51.30
2023-05-25T07:29:18.288Z,51.70
2023-05-25T07:34:57.099Z,51.00
2023-05-25T07:46:39.852Z,51.10
2023-05-25T07:58:02.531Z,51.20
2023-05-25T08:22:00.516Z,50.40
2023-05-25T08:27:46.258Z,50.80
2023-05-25T08:33:11.132Z,50.80
2023-05-25T08:38:32.083Z,50.90
2023-05-25T08:43:50.124Z,51.00
2023-05-25T08:49:15.302Z,51.00
2023-05-25T08:54:46.340Z,50.90
2023-05-25T09:00:30.849Z,50.50
2023-05-25T09:12:38.433Z,49.50
2023-05-25T09:18:21.165Z,49.40
2023-05-25T22:24:59.434Z,42.00
2023-05-25T22:49:17.241Z,42.50
2023-05-25T22:55:22.470Z,42.20
2023-05-25T23:12:59.354Z,43.00
2023-05-25T23:19:10.283Z,42.90
2023-05-25T23:42:11.617Z,42.90
2023-05-25T23:47:55.656Z,42.60
2023-05-25T23:53:37.642Z,42.90
